Auvergne, Arkansas
Current Conditions -  °F | °C
As of 11:56 PM on Sunday 23 Nov 2014 (Local Time) from KM19 Reporting Station
Overcast Overcast  
Wind Chill: 61°   Ceiling: 2000
Heat Index: 61°   Visibility: 10mi
Dew Point: 58°   Wind: 17mph
Humidity: 90%   Direction: 210°SSW
Pressure: 29.37"   Gusts: NA
Location:  35.5678°N, 91.2073°W
Report Text: KM19 240556Z AUTO 21015KT 10SM OVC020 16/14 A2937 RMK AO2 55007 60000 T01610144 10161 20150 401610088 OVC V BKN PK WND 21027/0546 SLP943
Loading
Personal Weather Stations






























Interactive Weather Map New forecast layout! Learn more

10-Day Weather Forecast

Advertisements
Track Severe Weather on mobile